Terminal Aerodrome Forecast
Issued by NWS

Home | Current Version | Previous Version | Text Only | Print | Product List | Glossary On
Versions: 1 2 3 4 5 6 7 8 9 10 11 12 13 14 15 16 17 18 19 20 21 22 23 24 25 26 27 28 29 30 31 32
000
FTUS42 TJSJ 152338
TAFKPK
TAF
TKPK 152338Z 1600/1624 06011KT P6SM VCSH FEW017
     FM160900 07010KT P6SM VCTS SCT017 BKN028CB
     FM161400 11012KT P6SM FEW018 FEW030
     FM162100 08009KT P6SM FEW018=

USA.gov is the U.S. government's official web portal to all federal, state and local government web resources and services.